• Join FlightAware (Why Join?)
  • Login
  • US Flag 
07:17PM EDT


 

Airport Tracker/Info


-or-


 

Live Flight TrackerFlight Track Log ✈ CTL312 ✈ 11-Jun-2013 ✈ KBKL - KPTK

Flight Track Log - Related Links

Times and Time Zones

All times are in EDT time to prevent confusion due to time zone crossing. See the CTL312 flight status page for this flight to view local times or setup timezone preferences in your user account.

Time Position Orientation Groundspeed Altitude Reporting Facility
EDT Latitude Longitude Course Direction KTS MPH feet Rate Location/Type
09:59PM 41.7614 -82.3119 299° West 150 173 6,100  Level Cleveland Center
10:00PM 41.7814 -82.3597 299° West 147 169 6,100  Level Cleveland Center
10:01PM 41.7933 -82.4103 288° West 147 169 6,100  Level Cleveland Center
10:02PM 41.8028 -82.4606 284° West 147 169 6,100  Level Cleveland Center
10:03PM 41.8122 -82.5167 283° West 146 168 6,100  Level Cleveland Center
10:03PM 41.8203 -82.5419 293° West 149 171 6,100  Level Cleveland Center
10:04PM 41.8319 -82.5953 286° West 151 174 6,100  Level Cleveland Center
10:05PM 41.8539 -82.6406 303° West 154 177 6,100  Level Cleveland Center
10:06PM 41.8950 -82.6725 330° Northwest 157 181 6,100  Level Cleveland Center
10:07PM 41.9319 -82.7044 327° Northwest 158 182 6,100  Level Cleveland Center
10:08PM 41.9689 -82.7336 330° Northwest 158 182 6,100  Level Cleveland Center
10:09PM 42.0058 -82.7683 325° Northwest 158 182 6,100  Level Cleveland Center
10:10PM 42.0450 -82.7947 333° Northwest 156 180 6,100  Level Cleveland Center
10:11PM 42.0839 -82.8269 328° Northwest 156 180 6,100  Level Cleveland Center
10:12PM 42.1189 -82.8561 328° Northwest 151 174 6,100  Level Cleveland Center
10:13PM 42.1578 -82.8856 331° Northwest 153 176 6,100  Level Cleveland Center
10:14PM 42.1947 -82.9178 327° Northwest 153 176 6,100  Level Cleveland Center
10:15PM 42.2358 -82.9472 332° Northwest 152 175 6,100  Level Cleveland Center
10:16PM 42.2725 -82.9825 325° Northwest 155 178 6,100  Level Cleveland Center
10:17PM 42.3094 -83.0092 332° Northwest 153 176 6,100  Level Cleveland Center
10:18PM 42.3422 -83.0442 322° Northwest 153 176 6,100 -60 Level Cleveland Center
10:19PM 42.3789 -83.0736 329° Northwest 155 178 6,000 -360 Descending Cleveland Center
10:20PM 42.4181 -83.1061 329° Northwest 180 207 5,400 -780 Descending Cleveland Center
10:21PM 42.4628 -83.1472 326° Northwest 179 206 4,500 -840 Descending Cleveland Center
10:22PM 42.4994 -83.1853 323° Northwest 174 200 3,800 -600 Descending Cleveland Center
10:23PM 42.5319 -83.2261 317° Northwest 167 192 3,400 -420 Descending Cleveland Center
10:24PM 42.5686 -83.2672 320° Northwest 164 189 3,100 -300 Descending Cleveland Center
10:25PM 42.6031 -83.3025 323° Northwest 159 183 2,800 -480 Descending Cleveland Center
10:26PM 42.6356 -83.3433 317° Northwest 161 185 2,200 -600 Descending Cleveland Center
10:27PM 42.6617 -83.3783 315° West 114 131 1,700 -540 Descending Cleveland Center